Time;durP1;ratioP1;P1;durP2;ratioP2;P2;SDS_P1;SDS_P2;PMS_P1;PMS_P2;Temp;Humidity;BMP_temperature;BMP_pressure;BME280_temperature;BME280_humidity;BME280_pressure;Samples;Min_cycle;Max_cycle;Signal;HPM_P1;HPM_P2
2022/05/27 00:00:14;;;;;;;1.60;1.50;;;15.70;99.90;;;;;;5031699;28;20180;-55
2022/05/27 00:02:40;;;;;;;2.93;1.50;;;15.60;99.90;;;;;;5031663;28;20254;-54
2022/05/27 00:05:06;;;;;;;2.30;1.80;;;15.60;99.90;;;;;;5031537;28;20700;-58
2022/05/27 00:07:32;;;;;;;2.27;1.80;;;15.60;99.90;;;;;;5030884;28;20259;-57
2022/05/27 00:09:57;;;;;;;2.00;1.40;;;15.50;99.90;;;;;;5031440;28;20182;-57
2022/05/27 00:12:23;;;;;;;2.90;1.97;;;15.50;99.90;;;;;;5031827;28;20172;-55
2022/05/27 00:14:48;;;;;;;2.10;1.90;;;15.50;99.90;;;;;;5031272;28;20171;-55
2022/05/27 00:17:14;;;;;;;2.50;1.80;;;15.50;99.90;;;;;;5031942;28;20768;-54
2022/05/27 00:19:41;;;;;;;2.33;2.03;;;15.50;99.90;;;;;;5031739;28;20206;-57
2022/05/27 00:22:08;;;;;;;2.50;1.80;;;15.50;99.90;;;;;;5030505;28;20172;-53
2022/05/27 00:24:35;;;;;;;1.83;1.73;;;15.60;99.90;;;;;;5030988;28;20263;-57
2022/05/27 00:27:01;;;;;;;2.27;2.07;;;15.50;99.90;;;;;;5031483;28;20624;-55
2022/05/27 00:29:26;;;;;;;2.13;1.83;;;15.50;99.90;;;;;;5031573;28;20179;-54
2022/05/27 00:31:52;;;;;;;3.17;1.80;;;15.50;99.90;;;;;;5031519;28;20183;-57
2022/05/27 00:34:17;;;;;;;3.70;1.93;;;15.40;99.90;;;;;;5031049;28;20239;-51
2022/05/27 00:36:43;;;;;;;2.47;1.73;;;15.40;99.90;;;;;;5031458;28;20218;-53
2022/05/27 00:39:09;;;;;;;2.93;2.00;;;15.40;99.90;;;;;;5031330;28;20168;-55
2022/05/27 00:41:34;;;;;;;1.93;1.83;;;15.40;99.90;;;;;;5031530;28;20551;-57
2022/05/27 00:44:00;;;;;;;2.10;1.90;;;15.40;99.90;;;;;;5031099;28;20172;-52
2022/05/27 00:46:29;;;;;;;2.30;2.10;;;15.50;99.90;;;;;;5031268;28;20207;-55
2022/05/27 00:49:03;;;;;;;2.73;2.20;;;15.60;99.90;;;;;;5031279;28;20187;-57
2022/05/27 00:51:32;;;;;;;2.40;2.20;;;15.50;99.90;;;;;;5031272;28;20174;-55
2022/05/27 00:54:07;;;;;;;1.80;1.70;;;15.60;99.90;;;;;;5031166;28;20716;-55
2022/05/27 00:56:36;;;;;;;3.73;2.10;;;15.60;99.90;;;;;;5031197;28;20199;-54
2022/05/27 00:59:12;;;;;;;2.43;2.23;;;15.70;99.90;;;;;;5031154;28;20180;-55
2022/05/27 01:01:37;;;;;;;2.03;1.90;;;15.70;99.90;;;;;;5031187;28;20162;-57
2022/05/27 01:04:03;;;;;;;2.20;2.00;;;15.70;99.90;;;;;;5046304;28;20286;-55
2022/05/27 01:06:29;;;;;;;2.20;1.90;;;15.70;99.90;;;;;;5031142;28;20550;-50
2022/05/27 01:08:55;;;;;;;2.20;1.97;;;15.70;99.90;;;;;;5031072;28;20183;-54
2022/05/27 01:11:20;;;;;;;2.30;2.10;;;15.80;99.90;;;;;;5031146;28;20260;-57
2022/05/27 01:14:34;;;;;;;2.00;1.80;;;15.80;99.90;;;;;;5030726;28;20283;-58
2022/05/27 01:17:19;;;;;;;2.00;1.90;;;15.80;99.90;;;;;;4969918;28;20714;-54
2022/05/27 01:20:19;;;;;;;2.23;1.93;;;15.80;99.90;;;;;;4972896;28;20190;-54
2022/05/27 01:23:15;;;;;;;2.23;2.00;;;15.80;99.90;;;;;;4973894;28;20696;-54
2022/05/27 01:26:07;;;;;;;3.57;2.23;;;15.80;99.90;;;;;;4973516;28;20205;-56
2022/05/27 01:28:52;;;;;;;3.83;2.27;;;15.80;99.90;;;;;;4973791;28;20166;-57
2022/05/27 01:31:41;;;;;;;2.40;2.20;;;15.90;99.90;;;;;;4973702;28;20178;-57
2022/05/27 01:34:15;;;;;;;4.20;2.30;;;15.80;99.90;;;;;;4962246;28;20214;-53
2022/05/27 01:36:40;;;;;;;4.17;2.63;;;15.80;99.90;;;;;;4973549;28;20738;-55
2022/05/27 01:39:20;;;;;;;2.87;2.27;;;15.70;99.90;;;;;;4973437;28;20186;-58
2022/05/27 01:42:02;;;;;;;2.27;2.13;;;15.70;99.90;;;;;;4973127;28;20174;-56
2022/05/27 01:44:41;;;;;;;3.13;2.60;;;15.70;99.90;;;;;;4972390;28;20574;-57
2022/05/27 01:47:13;;;;;;;2.83;2.20;;;15.80;99.90;;;;;;4972693;28;20222;-59
2022/05/27 01:49:45;;;;;;;4.40;2.17;;;15.80;99.90;;;;;;4973348;28;20186;-56
2022/05/27 01:52:28;;;;;;;3.50;2.30;;;15.80;99.90;;;;;;4993447;28;20187;-58
2022/05/27 01:55:24;;;;;;;1.70;1.60;;;15.80;99.90;;;;;;5033980;28;20251;-59
2022/05/27 01:57:59;;;;;;;2.07;1.90;;;15.70;99.90;;;;;;5034327;28;20223;-58
2022/05/27 02:00:26;;;;;;;1.80;1.70;;;15.60;99.90;;;;;;5034210;28;20191;-55
2022/05/27 02:03:07;;;;;;;6.27;2.57;;;15.60;99.90;;;;;;5032837;28;20230;-55
2022/05/27 02:06:01;;;;;;;2.27;2.07;;;15.70;99.90;;;;;;5033856;28;20619;-54
2022/05/27 02:08:32;;;;;;;2.20;2.10;;;15.70;99.90;;;;;;5034196;28;20195;-55
2022/05/27 02:11:00;;;;;;;2.30;2.10;;;15.60;99.90;;;;;;5033956;28;20180;-56
2022/05/27 02:13:38;;;;;;;2.20;2.00;;;15.70;99.90;;;;;;5033556;28;20200;-56
2022/05/27 02:16:06;;;;;;;3.63;1.97;;;15.70;99.90;;;;;;5033461;28;20203;-56
2022/05/27 02:18:44;;;;;;;2.30;1.90;;;15.70;99.90;;;;;;5033659;28;20175;-57
2022/05/27 02:21:20;;;;;;;2.60;2.17;;;15.70;99.90;;;;;;5034057;28;20171;-57
2022/05/27 02:23:54;;;;;;;3.03;2.20;;;15.80;99.90;;;;;;5033577;28;20160;-52
2022/05/27 02:26:24;;;;;;;2.13;1.80;;;15.80;99.90;;;;;;5033683;28;20195;-56
2022/05/27 02:28:56;;;;;;;3.40;1.83;;;15.80;99.90;;;;;;5033656;28;20196;-56
2022/05/27 02:31:26;;;;;;;2.60;2.00;;;15.80;99.90;;;;;;5033045;28;20195;-57
2022/05/27 02:37:02;;;;;;;2.57;1.93;;;15.80;99.90;;;;;;5033766;28;20636;-54
2022/05/27 02:39:28;;;;;;;2.60;1.80;;;15.80;99.90;;;;;;5048887;28;20175;-58
2022/05/27 02:42:00;;;;;;;2.23;1.87;;;15.80;99.90;;;;;;5033508;28;20195;-58
2022/05/27 02:44:44;;;;;;;1.80;1.70;;;17.60;99.90;;;;;;5033206;28;20172;-56
2022/05/27 02:47:17;;;;;;;1.83;1.73;;;15.90;99.90;;;;;;5033386;28;20180;-51
2022/05/27 02:49:57;;;;;;;1.90;1.80;;;15.90;99.90;;;;;;5033266;28;20186;-56
2022/05/27 02:53:11;;;;;;;3.20;1.70;;;15.90;99.90;;;;;;5033374;28;20152;-58
2022/05/27 02:56:03;;;;;;;2.40;1.83;;;15.90;99.90;;;;;;4971678;28;20607;-55
2022/05/27 02:58:30;;;;;;;3.97;1.80;;;15.80;99.90;;;;;;4972244;28;20544;-55
2022/05/27 03:00:56;;;;;;;1.90;1.63;;;15.80;99.90;;;;;;4955757;28;20182;-57
2022/05/27 03:03:21;;;;;;;1.90;1.60;;;15.60;99.90;;;;;;4971876;28;20185;-59
2022/05/27 03:06:16;;;;;;;1.73;1.63;;;15.50;99.90;;;;;;4971743;28;20209;-56
2022/05/27 03:08:47;;;;;;;4.73;2.03;;;15.70;99.90;;;;;;4971933;28;20182;-58
2022/05/27 03:11:33;;;;;;;2.30;2.10;;;15.60;99.90;;;;;;4971869;28;20664;-55
2022/05/27 03:14:23;;;;;;;2.43;1.60;;;15.50;99.90;;;;;;4971406;28;20190;-56
2022/05/27 03:17:03;;;;;;;3.73;1.90;;;15.60;99.90;;;;;;4971476;28;20702;-57
2022/05/27 03:19:41;;;;;;;2.60;1.80;;;15.60;99.90;;;;;;4972012;28;20778;-57
2022/05/27 03:22:33;;;;;;;2.83;2.10;;;15.60;99.90;;;;;;4971678;28;20198;-57
2022/05/27 03:25:13;;;;;;;3.20;2.07;;;15.60;99.90;;;;;;4971158;28;20209;-58
2022/05/27 03:27:47;;;;;;;1.90;1.80;;;15.60;99.90;;;;;;4971535;28;20194;-57
2022/05/27 03:30:19;;;;;;;2.27;2.07;;;15.70;99.90;;;;;;4983337;28;20701;-56
2022/05/27 03:32:56;;;;;;;2.10;1.90;;;15.70;99.90;;;;;;5032762;28;20221;-57
2022/05/27 03:35:43;;;;;;;4.57;2.13;;;15.70;99.90;;;;;;5031968;28;20283;-57
2022/05/27 03:38:30;;;;;;;2.43;2.23;;;15.70;99.90;;;;;;5032408;28;20159;-57
2022/05/27 03:41:06;;;;;;;2.27;2.07;;;15.70;99.90;;;;;;5032346;28;20172;-57
2022/05/27 03:43:34;;;;;;;4.03;2.47;;;15.70;99.90;;;;;;5031084;28;20183;-58
2022/05/27 03:46:00;;;;;;;2.10;1.90;;;15.80;99.90;;;;;;5032244;28;20188;-57
2022/05/27 03:48:28;;;;;;;1.90;1.57;;;15.60;99.90;;;;;;5031975;28;20176;-58
2022/05/27 03:51:00;;;;;;;3.57;2.40;;;15.60;99.90;;;;;;5022589;28;20176;-56
2022/05/27 03:54:03;;;;;;;2.23;2.03;;;15.60;99.90;;;;;;5031894;28;20315;-58
2022/05/27 03:56:11;;;;;;;2.20;2.00;;;15.50;99.90;;;;;;5031998;28;20252;-59
2022/05/27 03:58:37;;;;;;;2.33;2.10;;;15.50;99.90;;;;;;5031965;28;20576;-58
2022/05/27 04:01:02;;;;;;;2.37;2.17;;;15.50;99.90;;;;;;5032280;28;20293;-54
2022/05/27 04:03:28;;;;;;;3.17;2.33;;;15.40;99.90;;;;;;5031681;28;20598;-56
2022/05/27 04:05:53;;;;;;;2.93;2.10;;;15.40;99.90;;;;;;5031846;28;20219;-59
2022/05/27 04:08:19;;;;;;;2.27;2.07;;;15.30;99.90;;;;;;5031734;28;20179;-56
2022/05/27 04:10:44;;;;;;;2.20;2.10;;;15.30;99.90;;;;;;5031849;28;20176;-51
2022/05/27 04:13:10;;;;;;;3.43;2.20;;;15.30;99.90;;;;;;5031466;28;20208;-58
2022/05/27 04:15:35;;;;;;;3.30;2.20;;;15.30;99.90;;;;;;5031334;28;20234;-56
2022/05/27 04:18:01;;;;;;;2.80;2.23;;;15.40;99.90;;;;;;5031744;28;20187;-56
2022/05/27 04:20:26;;;;;;;2.20;2.00;;;15.40;99.90;;;;;;5031726;28;20656;-56
2022/05/27 04:22:56;;;;;;;2.00;1.90;;;15.60;99.90;;;;;;5031879;28;20699;-58
2022/05/27 04:25:22;;;;;;;3.20;2.13;;;15.60;99.90;;;;;;5031187;28;20196;-59
2022/05/27 04:27:48;;;;;;;4.43;1.93;;;15.70;99.90;;;;;;5031784;28;20175;-57
2022/05/27 04:30:14;;;;;;;3.00;2.30;;;15.80;99.90;;;;;;5031581;28;20175;-57
2022/05/27 04:32:40;;;;;;;2.40;2.03;;;16.00;99.90;;;;;;5031502;28;20256;-56
2022/05/27 04:35:08;;;;;;;3.33;2.10;;;15.90;99.90;;;;;;5031448;28;20192;-54
2022/05/27 04:37:34;;;;;;;4.33;2.30;;;15.90;99.90;;;;;;5031444;28;20207;-55
2022/05/27 04:40:00;;;;;;;2.20;2.00;;;15.90;99.90;;;;;;5031477;28;20179;-52
2022/05/27 04:42:26;;;;;;;1.90;1.80;;;16.00;99.90;;;;;;5031377;28;20218;-54
2022/05/27 04:44:52;;;;;;;2.20;2.03;;;16.00;99.90;;;;;;5031119;28;20199;-52
2022/05/27 04:47:17;;;;;;;2.10;2.00;;;16.10;99.90;;;;;;5031478;28;20183;-51
2022/05/27 04:49:53;;;;;;;2.53;2.30;;;16.10;99.90;;;;;;5031389;28;20171;-53
2022/05/27 04:52:21;;;;;;;2.10;1.90;;;16.20;99.90;;;;;;5031395;28;20553;-53
2022/05/27 04:54:47;;;;;;;3.47;1.97;;;16.20;99.90;;;;;;5034170;28;20291;-52
2022/05/27 04:57:17;;;;;;;2.57;2.03;;;16.30;99.90;;;;;;5035373;28;20200;-55
2022/05/27 04:59:46;;;;;;;2.50;2.17;;;16.20;99.90;;;;;;5035575;28;20164;-55
2022/05/27 05:02:12;;;;;;;2.17;1.87;;;16.30;99.90;;;;;;5035329;28;20168;-54
2022/05/27 05:04:38;;;;;;;2.37;2.17;;;16.40;99.90;;;;;;5035015;28;20226;-52
2022/05/27 05:07:08;;;;;;;3.10;2.30;;;16.50;99.90;;;;;;5035065;28;20690;-52
2022/05/27 05:09:35;;;;;;;2.90;2.60;;;16.60;99.90;;;;;;5035218;28;20173;-54
2022/05/27 05:12:00;;;;;;;2.53;2.27;;;16.70;99.90;;;;;;5035141;28;20198;-55
2022/05/27 05:14:26;;;;;;;5.10;2.37;;;16.70;99.90;;;;;;5034713;28;20211;-54
2022/05/27 05:16:52;;;;;;;2.73;2.00;;;16.70;99.90;;;;;;5036219;28;20218;-50
2022/05/27 05:19:17;;;;;;;2.30;2.10;;;16.70;99.90;;;;;;5034775;28;20172;-54
2022/05/27 05:21:43;;;;;;;2.30;2.10;;;16.70;99.90;;;;;;5035009;28;20648;-55
2022/05/27 05:24:08;;;;;;;2.77;2.20;;;16.70;99.90;;;;;;5034744;28;20218;-54
2022/05/27 05:26:34;;;;;;;2.43;2.23;;;16.70;99.90;;;;;;5034761;28;20226;-54
2022/05/27 05:28:59;;;;;;;1.97;1.87;;;16.70;99.90;;;;;;5034783;28;20176;-51
2022/05/27 05:31:25;;;;;;;2.80;2.27;;;16.80;99.90;;;;;;5034837;28;20184;-55
2022/05/27 05:33:51;;;;;;;3.57;2.23;;;16.90;99.90;;;;;;5034363;28;20191;-56
2022/05/27 05:36:16;;;;;;;3.43;2.30;;;16.90;99.90;;;;;;5034244;28;20320;-54
2022/05/27 05:38:42;;;;;;;2.10;2.00;;;17.00;99.90;;;;;;5034245;28;20597;-52
2022/05/27 05:41:07;;;;;;;2.77;2.37;;;17.10;99.90;;;;;;5034640;28;20678;-56
2022/05/27 05:43:34;;;;;;;3.27;2.20;;;17.10;99.90;;;;;;5034322;28;20661;-54
2022/05/27 05:45:59;;;;;;;2.23;1.83;;;17.10;99.90;;;;;;5034517;28;20254;-56
2022/05/27 05:48:25;;;;;;;1.63;1.53;;;17.00;99.90;;;;;;5034393;28;20239;-53
2022/05/27 05:50:50;;;;;;;2.43;2.20;;;17.10;99.90;;;;;;5034293;28;20174;-53
2022/05/27 05:53:19;;;;;;;2.10;1.93;;;17.20;99.90;;;;;;5034194;28;20513;-56
2022/05/27 05:55:45;;;;;;;3.23;2.20;;;17.30;99.90;;;;;;5034045;28;20203;-55
2022/05/27 05:58:10;;;;;;;2.13;2.03;;;17.30;99.90;;;;;;5034237;28;20168;-54
2022/05/27 06:00:36;;;;;;;3.50;2.27;;;17.30;99.90;;;;;;5034201;28;20176;-54
2022/05/27 06:03:01;;;;;;;2.80;2.10;;;17.50;99.90;;;;;;5034302;28;20643;-53
2022/05/27 06:05:27;;;;;;;2.23;2.00;;;17.10;99.90;;;;;;5032571;28;20203;-55
2022/05/27 06:07:55;;;;;;;2.30;2.10;;;17.10;99.90;;;;;;5034102;28;20182;-56
2022/05/27 06:10:21;;;;;;;3.03;1.73;;;17.10;99.90;;;;;;5034118;28;20193;-57
2022/05/27 06:12:47;;;;;;;4.57;2.20;;;17.20;99.90;;;;;;5033754;28;20796;-54
2022/05/27 06:15:13;;;;;;;2.20;2.00;;;17.20;99.90;;;;;;5033419;28;20682;-51
2022/05/27 06:17:39;;;;;;;1.90;1.60;;;17.20;99.90;;;;;;5033904;28;20194;-57
2022/05/27 06:20:06;;;;;;;3.10;1.80;;;17.10;99.90;;;;;;5033965;28;20168;-56
2022/05/27 06:22:32;;;;;;;3.13;2.00;;;17.20;99.90;;;;;;5033872;28;20196;-52
2022/05/27 06:24:59;;;;;;;2.80;1.70;;;17.30;99.90;;;;;;5033430;28;20633;-55
2022/05/27 06:27:25;;;;;;;1.90;1.70;;;17.40;99.90;;;;;;5033800;28;20305;-53
2022/05/27 06:35:32;;;;;;;2.13;1.90;;;17.20;99.90;;;;;;5033279;28;20240;-56
2022/05/27 06:37:58;;;;;;;2.87;1.90;;;17.20;99.90;;;;;;5033479;28;20172;-58
2022/05/27 06:40:23;;;;;;;2.90;2.10;;;17.10;99.90;;;;;;5033531;28;20176;-52
2022/05/27 06:42:49;;;;;;;2.23;1.80;;;17.00;99.90;;;;;;5033425;28;20210;-52
2022/05/27 06:45:15;;;;;;;3.07;1.90;;;17.00;99.90;;;;;;5033122;28;20192;-56
2022/05/27 06:47:41;;;;;;;3.90;1.93;;;17.10;99.90;;;;;;5033249;28;20518;-58
2022/05/27 06:50:08;;;;;;;2.53;1.87;;;17.20;99.90;;;;;;5033378;28;20172;-53
2022/05/27 06:52:34;;;;;;;5.47;2.17;;;17.20;99.90;;;;;;5033364;28;20188;-56
2022/05/27 06:55:00;;;;;;;2.10;1.90;;;17.10;99.90;;;;;;5032826;28;20246;-54
2022/05/27 06:57:25;;;;;;;6.27;2.00;;;17.10;99.90;;;;;;5033448;28;20203;-57
2022/05/27 06:59:51;;;;;;;2.10;1.90;;;17.10;99.90;;;;;;5033015;28;20172;-56
2022/05/27 07:02:17;;;;;;;2.00;1.80;;;17.20;99.90;;;;;;5033222;28;20198;-56
2022/05/27 07:04:42;;;;;;;3.03;1.90;;;17.20;99.90;;;;;;5031571;28;20218;-57
2022/05/27 07:07:09;;;;;;;2.33;1.80;;;17.30;99.90;;;;;;5032968;28;20176;-55
2022/05/27 07:09:38;;;;;;;2.13;1.80;;;17.30;99.90;;;;;;5032921;28;20191;-57
2022/05/27 07:12:07;;;;;;;2.87;1.63;;;17.40;99.90;;;;;;5033020;28;20558;-56
2022/05/27 07:14:33;;;;;;;2.23;1.70;;;17.50;99.90;;;;;;5032612;28;20199;-57
2022/05/27 07:16:59;;;;;;;3.43;2.07;;;17.50;99.90;;;;;;5032482;28;20265;-56
2022/05/27 07:19:24;;;;;;;3.10;1.90;;;17.60;99.90;;;;;;5032860;28;20568;-55
2022/05/27 07:21:50;;;;;;;3.30;2.23;;;17.70;99.90;;;;;;5032912;28;20168;-55
2022/05/27 07:24:18;;;;;;;2.60;1.83;;;17.80;99.90;;;;;;5032466;28;20626;-56
2022/05/27 07:26:45;;;;;;;2.63;1.70;;;17.80;99.90;;;;;;5032670;28;20192;-53
2022/05/27 07:29:11;;;;;;;3.10;1.80;;;17.90;99.90;;;;;;5032622;28;20227;-55
2022/05/27 07:31:38;;;;;;;3.37;2.00;;;17.80;99.90;;;;;;5032624;28;20596;-54
2022/05/27 07:34:05;;;;;;;2.97;1.70;;;17.80;99.90;;;;;;5032202;28;20211;-51
2022/05/27 07:36:30;;;;;;;3.90;1.80;;;17.90;99.90;;;;;;5032392;28;20744;-51
2022/05/27 07:38:56;;;;;;;3.43;1.77;;;18.10;99.90;;;;;;5032238;28;20330;-53
2022/05/27 07:41:23;;;;;;;3.87;1.73;;;18.30;99.90;;;;;;5032426;28;20178;-55
2022/05/27 07:43:50;;;;;;;3.87;2.00;;;18.40;99.90;;;;;;5032080;28;20180;-51
2022/05/27 07:46:16;;;;;;;2.90;1.80;;;18.30;99.90;;;;;;5027189;28;20238;-58
2022/05/27 07:48:45;;;;;;;3.57;1.80;;;18.30;99.90;;;;;;5032025;28;20192;-54
2022/05/27 07:51:11;;;;;;;5.47;1.80;;;18.30;99.90;;;;;;5031799;28;20180;-52
2022/05/27 07:53:38;;;;;;;3.03;1.73;;;18.30;99.90;;;;;;5031404;28;20199;-59
2022/05/27 07:56:05;;;;;;;3.40;1.77;;;18.20;99.90;;;;;;5032019;28;20184;-56
2022/05/27 07:58:31;;;;;;;2.57;1.60;;;19.10;99.90;;;;;;5014050;28;20589;-52
2022/05/27 08:00:56;;;;;;;2.43;1.50;;;18.40;99.90;;;;;;5030701;28;20183;-52
2022/05/27 08:03:22;;;;;;;5.93;1.60;;;18.50;99.90;;;;;;5030597;28;20241;-51
2022/05/27 08:05:48;;;;;;;3.17;1.87;;;18.60;99.90;;;;;;5024874;28;20208;-55
2022/05/27 08:08:13;;;;;;;3.33;1.80;;;18.80;99.90;;;;;;5031055;28;20379;-54
2022/05/27 08:10:40;;;;;;;3.67;1.83;;;18.70;99.90;;;;;;5015275;28;20569;-54
2022/05/27 08:13:06;;;;;;;3.50;2.03;;;18.70;99.90;;;;;;5031219;28;20218;-56
2022/05/27 08:15:32;;;;;;;2.10;1.63;;;18.70;99.90;;;;;;5030923;28;20212;-49
2022/05/27 08:17:58;;;;;;;2.50;1.70;;;18.90;99.90;;;;;;5031123;28;20240;-50
2022/05/27 08:20:29;;;;;;;2.20;1.53;;;19.10;99.90;;;;;;5031397;28;20180;-54
2022/05/27 08:22:57;;;;;;;3.50;1.90;;;19.10;99.90;;;;;;5022829;28;20175;-52
2022/05/27 08:25:23;;;;;;;3.33;1.50;;;19.00;99.90;;;;;;5031219;28;20281;-56
2022/05/27 08:27:49;;;;;;;2.93;1.77;;;19.00;99.90;;;;;;5031014;28;20176;-55
2022/05/27 08:30:25;;;;;;;2.37;1.70;;;19.10;99.90;;;;;;5031634;28;20172;-54
2022/05/27 08:32:51;;;;;;;4.43;2.07;;;18.80;99.90;;;;;;5030818;28;20152;-53
2022/05/27 08:38:07;;;;;;;3.97;1.87;;;18.60;99.90;;;;;;5031659;28;20198;-57
2022/05/27 08:40:54;;;;;;;2.40;1.50;;;18.60;99.90;;;;;;5031662;28;20234;-53
2022/05/27 08:43:20;;;;;;;2.50;1.60;;;18.80;99.90;;;;;;5031545;28;20178;-56
2022/05/27 08:46:15;;;;;;;2.47;1.90;;;18.80;99.90;;;;;;5031013;28;20262;-56
2022/05/27 08:48:44;;;;;;;3.40;2.20;;;18.70;99.90;;;;;;5030191;28;20172;-55
2022/05/27 08:51:25;;;;;;;3.03;2.10;;;18.60;99.90;;;;;;5031309;28;20225;-55
2022/05/27 08:54:01;;;;;;;3.20;2.00;;;18.60;99.90;;;;;;5031069;28;20212;-56
2022/05/27 08:59:40;;;;;;;3.27;2.10;;;18.90;99.90;;;;;;5031565;28;20237;-55
2022/05/27 09:02:37;;;;;;;2.83;1.93;;;19.00;99.90;;;;;;5031372;28;20187;-58
2022/05/27 09:05:05;;;;;;;2.87;1.90;;;19.10;99.90;;;;;;5030935;28;20279;-54
2022/05/27 09:07:43;;;;;;;2.10;1.80;;;19.00;99.90;;;;;;5031286;28;20175;-54
2022/05/27 09:10:14;;;;;;;3.80;1.90;;;18.90;99.90;;;;;;5031051;28;20796;-54
2022/05/27 09:12:58;;;;;;;4.67;2.00;;;19.00;99.90;;;;;;5031010;28;20165;-54
2022/05/27 09:15:33;;;;;;;5.13;2.00;;;19.00;99.90;;;;;;5030966;28;20223;-53
2022/05/27 09:18:17;;;;;;;2.58;1.85;;;19.20;99.90;;;;;;5031160;28;20648;-54
2022/05/27 09:21:05;;;;;;;5.73;1.73;;;19.40;99.90;;;;;;5031129;28;20168;-56
2022/05/27 09:24:09;;;;;;;4.23;2.20;;;19.50;99.90;;;;;;5030891;28;20179;-54
2022/05/27 09:27:03;;;;;;;4.15;1.70;;;19.60;99.90;;;;;;5029719;28;20199;-55
2022/05/27 09:29:56;;;;;;;2.97;1.77;;;19.70;99.90;;;;;;5031048;28;20595;-55
2022/05/27 09:32:40;;;;;;;3.97;1.80;;;20.00;99.90;;;;;;5025216;28;20187;-53
2022/05/27 09:35:42;;;;;;;3.92;2.20;;;20.40;99.90;;;;;;5045892;28;20313;-57
2022/05/27 09:38:30;;;;;;;4.20;2.13;;;20.70;99.90;;;;;;5029707;28;20249;-56
2022/05/27 09:41:23;;;;;;;4.55;2.30;;;20.60;99.90;;;;;;5033854;28;20190;-56
2022/05/27 09:44:23;;;;;;;3.70;2.05;;;20.40;99.90;;;;;;5034280;28;20190;-57
2022/05/27 09:46:49;;;;;;;3.45;2.30;;;20.50;99.90;;;;;;5034583;28;20197;-53
2022/05/27 09:49:15;;;;;;;3.70;2.30;;;20.60;99.90;;;;;;5034482;28;20190;-56
2022/05/27 09:51:40;;;;;;;4.00;2.53;;;20.60;99.90;;;;;;5034495;28;20178;-55
2022/05/27 09:54:20;;;;;;;5.75;2.83;;;20.60;99.90;;;;;;5034138;28;20230;-57
2022/05/27 09:57:23;;;;;;;3.83;2.60;;;20.50;99.90;;;;;;5034216;28;20642;-57
2022/05/27 09:59:56;;;;;;;3.28;2.40;;;20.30;99.90;;;;;;5031852;28;20663;-55
2022/05/27 10:02:34;;;;;;;2.58;2.28;;;20.00;99.90;;;;;;5034423;28;20241;-56
2022/05/27 10:05:15;;;;;;;2.85;2.25;;;20.20;99.90;;;;;;5033817;28;20227;-57
2022/05/27 10:07:51;;;;;;;2.38;2.10;;;20.30;99.90;;;;;;5034238;28;20191;-56
2022/05/27 10:10:35;;;;;;;2.17;1.98;;;20.40;99.90;;;;;;5034152;28;20597;-55
2022/05/27 10:13:28;;;;;;;3.05;2.08;;;20.60;99.90;;;;;;5034049;28;20193;-56
2022/05/27 10:16:11;;;;;;;2.55;2.08;;;20.70;99.90;;;;;;5034240;28;20363;-57
2022/05/27 10:18:40;;;;;;;2.92;2.05;;;20.60;99.90;;;;;;5033915;28;20276;-53
2022/05/27 10:21:18;;;;;;;3.83;2.30;;;20.50;99.90;;;;;;5034168;28;20170;-57
2022/05/27 10:23:54;;;;;;;2.13;1.90;;;20.60;99.90;;;;;;5033605;28;20178;-54
2022/05/27 10:26:26;;;;;;;2.50;2.05;;;20.80;99.90;;;;;;5033739;28;20194;-54
2022/05/27 10:29:15;;;;;;;2.45;2.03;;;20.80;99.90;;;;;;5033729;28;20218;-55
2022/05/27 10:31:53;;;;;;;2.88;2.20;;;20.80;99.90;;;;;;5033755;28;20157;-55
2022/05/27 10:34:40;;;;;;;1.80;1.70;;;20.90;99.90;;;;;;5033277;28;20212;-56
2022/05/27 10:37:12;;;;;;;3.28;2.00;;;21.00;99.90;;;;;;5033316;28;20190;-53
2022/05/27 10:39:45;;;;;;;2.20;1.88;;;21.20;99.90;;;;;;5033590;28;20190;-57
2022/05/27 10:42:31;;;;;;;5.22;2.30;;;21.10;99.90;;;;;;5033436;28;20660;-54
2022/05/27 10:45:10;;;;;;;2.65;2.20;;;21.30;99.90;;;;;;5033390;28;20194;-54
2022/05/27 10:47:49;;;;;;;5.13;2.20;;;21.50;99.90;;;;;;5033441;28;20186;-53
2022/05/27 10:50:46;;;;;;;3.00;2.03;;;21.50;99.90;;;;;;5033447;28;20202;-54
2022/05/27 10:53:23;;;;;;;2.53;2.17;;;21.60;99.90;;;;;;5033194;28;20578;-55
2022/05/27 10:55:54;;;;;;;3.53;2.17;;;21.30;99.90;;;;;;5033087;28;20201;-55
2022/05/27 11:02:20;;;;;;;3.53;2.20;;;20.80;99.90;;;;;;5033491;28;20230;-58
2022/05/27 11:05:04;;;;;;;3.58;2.40;;;20.80;99.90;;;;;;5032849;28;20228;-56
2022/05/27 11:07:57;;;;;;;2.53;2.33;;;20.90;99.90;;;;;;5032902;28;20226;-53
2022/05/27 11:10:31;;;;;;;2.95;2.20;;;21.10;99.90;;;;;;5032976;28;20172;-58
2022/05/27 11:16:31;;;;;;;3.63;2.10;;;21.70;99.90;;;;;;5032789;28;20286;-58
2022/05/27 11:19:35;;;;;;;4.03;2.13;;;21.90;99.90;;;;;;5034119;28;20226;-55
2022/05/27 11:22:22;;;;;;;2.05;1.85;;;21.90;99.90;;;;;;5032580;28;20668;-56
2022/05/27 11:24:53;;;;;;;2.20;1.80;;;22.10;99.90;;;;;;5032465;28;20525;-55
2022/05/27 11:27:47;;;;;;;3.00;1.85;;;22.60;99.90;;;;;;5032607;28;20178;-56
2022/05/27 11:30:36;;;;;;;2.28;1.77;;;22.70;99.90;;;;;;5032697;28;20222;-56
2022/05/27 11:33:24;;;;;;;3.00;1.80;;;22.80;99.90;;;;;;5004238;28;20196;-57
2022/05/27 11:36:20;;;;;;;2.47;1.77;;;22.80;99.90;;;;;;5032431;28;20706;-54
2022/05/27 11:38:55;;;;;;;3.20;2.05;;;22.40;99.90;;;;;;5032426;28;20156;-56
2022/05/27 11:41:50;;;;;;;2.55;2.08;;;22.20;99.90;;;;;;5032381;28;20672;-57
2022/05/27 11:44:24;;;;;;;3.10;1.90;;;22.10;99.90;;;;;;5032202;28;20171;-56
2022/05/27 11:47:17;;;;;;;2.03;1.85;;;22.10;99.90;;;;;;5032163;28;20711;-53
2022/05/27 11:49:52;;;;;;;2.38;1.90;;;22.00;99.90;;;;;;5032262;28;20178;-54
2022/05/27 11:52:48;;;;;;;1.70;1.60;;;21.80;99.90;;;;;;5032326;28;20148;-57
2022/05/27 11:55:35;;;;;;;1.95;1.45;;;21.70;99.90;;;;;;5031696;28;20538;-56
2022/05/27 11:58:12;;;;;;;1.92;1.73;;;22.10;99.90;;;;;;5032119;28;20229;-56
2022/05/27 12:01:02;;;;;;;1.98;1.40;;;22.50;99.90;;;;;;5031996;28;20218;-52
2022/05/27 12:03:58;;;;;;;3.13;1.70;;;22.60;99.90;;;;;;5030937;28;20168;-59
2022/05/27 12:06:32;;;;;;;2.15;1.65;;;22.90;99.90;;;;;;5032034;28;20203;-57
2022/05/27 12:09:24;;;;;;;2.75;1.38;;;23.20;99.90;;;;;;5031902;28;20257;-57
2022/05/27 12:11:59;;;;;;;2.05;1.35;;;23.20;99.90;;;;;;5031651;28;20168;-51
2022/05/27 12:14:36;;;;;;;1.63;1.10;;;23.20;99.90;;;;;;5027577;28;20213;-55
2022/05/27 12:17:05;;;;;;;3.60;0.90;;;23.00;99.90;;;;;;5035198;28;20203;-53
2022/05/27 12:19:37;;;;;;;2.88;1.00;;;22.70;99.90;;;;;;5007518;28;20572;-53
2022/05/27 12:22:22;;;;;;;1.65;1.42;;;22.60;99.90;;;;;;5013899;28;20175;-55
2022/05/27 12:24:53;;;;;;;5.13;1.27;;;22.40;99.90;;;;;;4995090;28;20176;-54
2022/05/27 12:27:19;;;;;;;3.53;1.50;;;22.30;99.90;;;;;;5019995;28;20194;-55
2022/05/27 12:29:48;;;;;;;2.92;1.20;;;22.10;99.90;;;;;;5013772;28;20172;-57
2022/05/27 12:32:17;;;;;;;1.17;1.00;;;22.20;99.90;;;;;;5013721;28;20180;-55
2022/05/27 12:34:44;;;;;;;2.53;1.20;;;22.30;99.90;;;;;;5030987;28;20192;-56
2022/05/27 12:37:22;;;;;;;4.72;1.30;;;22.40;99.90;;;;;;5030317;28;20262;-57
2022/05/27 12:39:49;;;;;;;2.20;1.20;;;22.50;99.90;;;;;;5036319;28;20670;-56
2022/05/27 12:42:23;;;;;;;2.47;1.10;;;22.40;99.90;;;;;;5044329;28;20175;-56
2022/05/27 12:44:50;;;;;;;3.70;1.38;;;22.30;99.90;;;;;;5042236;28;20168;-57
2022/05/27 12:47:20;;;;;;;2.30;1.17;;;22.20;99.90;;;;;;5031134;28;20207;-56
2022/05/27 12:49:57;;;;;;;2.13;1.45;;;22.40;99.90;;;;;;5031404;28;20176;-57
2022/05/27 12:52:29;;;;;;;1.55;0.90;;;22.50;99.90;;;;;;5031297;28;20168;-58
2022/05/27 12:54:54;;;;;;;1.42;0.90;;;22.60;99.90;;;;;;5030914;28;20217;-56
2022/05/27 13:03:44;;;;;;;1.33;0.93;;;22.80;99.90;;;;;;5031382;28;20314;-57
2022/05/27 13:06:14;;;;;;;2.88;1.17;;;23.00;99.90;;;;;;5031187;28;20237;-54
2022/05/27 13:08:53;;;;;;;1.05;0.80;;;23.10;99.90;;;;;;5025116;28;20180;-55
2022/05/27 13:11:22;;;;;;;2.35;1.30;;;23.10;99.90;;;;;;5019319;28;20818;-56
2022/05/27 13:14:09;;;;;;;1.67;1.10;;;23.20;99.90;;;;;;5019200;28;20215;-56
2022/05/27 13:16:45;;;;;;;2.00;1.13;;;23.30;99.90;;;;;;4961930;28;20236;-57
2022/05/27 13:19:22;;;;;;;2.80;1.52;;;23.50;99.90;;;;;;4962949;28;20190;-54
2022/05/27 13:21:55;;;;;;;4.07;1.83;;;23.50;99.90;;;;;;4962554;28;20269;-52
2022/05/27 13:24:21;;;;;;;2.53;1.45;;;23.40;99.90;;;;;;4961639;28;20265;-55
2022/05/27 13:26:58;;;;;;;3.25;1.35;;;23.40;99.90;;;;;;4963530;28;20273;-54
2022/05/27 13:29:36;;;;;;;3.17;1.42;;;23.40;99.90;;;;;;4973709;28;20182;-55
2022/05/27 13:32:26;;;;;;;2.15;1.65;;;23.50;99.90;;;;;;4958321;28;20186;-57
2022/05/27 13:35:01;;;;;;;4.07;1.50;;;23.60;99.90;;;;;;4962284;28;20313;-57
2022/05/27 13:37:35;;;;;;;1.50;1.00;;;23.50;99.90;;;;;;4973609;28;20523;-54
2022/05/27 13:40:09;;;;;;;1.50;1.40;;;23.30;99.90;;;;;;4973656;28;20365;-54
2022/05/27 13:42:47;;;;;;;3.42;1.50;;;23.20;99.90;;;;;;4939785;28;20184;-54
2022/05/27 13:45:22;;;;;;;5.93;1.40;;;23.20;99.90;;;;;;4962505;28;20209;-53
2022/05/27 13:48:05;;;;;;;1.42;1.20;;;23.10;99.90;;;;;;4960731;28;20198;-54